createdAt,value
2023-02-26T00:02:21.331Z,97202.34
2023-02-26T00:04:51.867Z,97203.47
2023-02-26T00:07:29.552Z,97214.34
2023-02-26T00:10:01.613Z,97216.72
2023-02-26T00:12:32.425Z,97212.44
2023-02-26T00:15:03.765Z,97217.13
2023-02-26T00:17:42.688Z,97217.09
2023-02-26T00:20:16.924Z,97225.59
2023-02-26T00:22:50.535Z,97225.66
2023-02-26T00:25:20.807Z,97224.88
2023-02-26T00:27:51.541Z,97230.00
2023-02-26T00:30:22.678Z,97235.78
2023-02-26T00:32:53.958Z,97232.56
2023-02-26T00:35:25.011Z,97237.97
2023-02-26T00:38:02.986Z,97235.72
2023-02-26T00:40:39.687Z,97235.84
2023-02-26T00:43:11.695Z,97242.00
2023-02-26T00:45:44.669Z,97236.19
2023-02-26T00:48:25.774Z,97237.72
2023-02-26T00:51:02.338Z,97240.13
2023-02-26T00:53:38.503Z,97243.63
2023-02-26T00:56:08.646Z,97246.34
2023-02-26T00:58:38.650Z,97253.72
2023-02-26T01:01:08.917Z,97253.00
2023-02-26T01:03:39.884Z,97250.75
2023-02-26T01:06:14.097Z,97251.47
2023-02-26T01:08:53.327Z,97258.44
2023-02-26T01:11:23.938Z,97258.44
2023-02-26T01:13:54.722Z,97256.97
2023-02-26T01:16:29.264Z,97255.03
2023-02-26T01:19:08.132Z,97258.59
2023-02-26T01:21:41.266Z,97253.16
2023-02-26T01:24:17.986Z,97259.06
2023-02-26T01:26:50.040Z,97254.75
2023-02-26T01:29:20.746Z,97259.34
2023-02-26T01:31:55.811Z,97265.56
2023-02-26T01:34:29.698Z,97258.88
2023-02-26T01:37:03.290Z,97258.53
2023-02-26T01:39:41.943Z,97263.56
2023-02-26T01:42:19.148Z,97260.41
2023-02-26T01:44:59.215Z,97251.41
2023-02-26T01:47:33.799Z,97254.91
2023-02-26T01:50:13.180Z,97261.16
2023-02-26T01:53:18.862Z,97265.41
2023-02-26T01:55:54.020Z,97266.91
2023-02-26T01:58:25.062Z,97279.69
2023-02-26T02:00:55.166Z,97276.91
2023-02-26T02:03:25.830Z,97276.84
2023-02-26T02:05:59.746Z,97272.59
2023-02-26T02:08:29.781Z,97279.16
2023-02-26T02:11:03.762Z,97279.50
2023-02-26T02:13:44.757Z,97272.94
2023-02-26T02:16:21.214Z,97272.88
2023-02-26T02:18:57.112Z,97279.88
2023-02-26T02:21:36.823Z,97280.19
2023-02-26T02:24:14.502Z,97280.94
2023-02-26T02:26:59.726Z,97286.72
2023-02-26T02:29:49.113Z,97291.06
2023-02-26T02:32:24.927Z,97302.28
2023-02-26T02:34:57.453Z,97290.97
2023-02-26T02:37:32.492Z,97302.22
2023-02-26T02:40:06.105Z,97307.69
2023-02-26T02:42:40.051Z,97301.09
2023-02-26T02:45:13.636Z,97301.09
2023-02-26T02:47:47.729Z,97303.91
2023-02-26T02:50:23.992Z,97315.13
2023-02-26T02:52:57.687Z,97317.03
2023-02-26T02:55:30.259Z,97316.19
2023-02-26T02:58:03.573Z,97323.94
2023-02-26T03:00:36.042Z,97320.94
2023-02-26T03:03:13.974Z,97328.34
2023-02-26T03:05:44.026Z,97334.16
2023-02-26T03:08:16.080Z,97333.00
2023-02-26T03:10:49.734Z,97336.09
2023-02-26T03:13:23.174Z,97346.50
2023-02-26T03:16:08.491Z,97348.06
2023-02-26T03:18:52.143Z,97360.13
2023-02-26T03:21:26.966Z,97356.75
2023-02-26T03:24:02.309Z,97369.16
2023-02-26T03:26:37.748Z,97368.66
2023-02-26T03:29:13.859Z,97363.16
2023-02-26T03:31:50.215Z,97374.81
2023-02-26T03:34:29.150Z,97379.09
2023-02-26T03:37:00.764Z,97385.59
2023-02-26T03:39:34.776Z,97389.50
2023-02-26T03:42:09.043Z,97391.81
2023-02-26T03:44:53.226Z,97398.44
2023-02-26T03:47:23.662Z,97407.81
2023-02-26T03:50:02.804Z,97406.91
2023-02-26T03:52:38.208Z,97412.00
2023-02-26T03:55:21.648Z,97413.22
2023-02-26T03:58:11.915Z,97410.03
2023-02-26T04:00:58.966Z,97414.78
2023-02-26T04:03:32.174Z,97421.50
2023-02-26T04:06:06.095Z,97432.72
2023-02-26T04:08:36.335Z,97431.84
2023-02-26T04:11:10.674Z,97436.06
2023-02-26T04:13:40.825Z,97444.56
2023-02-26T04:16:10.884Z,97442.69
2023-02-26T04:18:41.266Z,97441.56
2023-02-26T04:21:17.202Z,97450.91
2023-02-26T04:23:47.404Z,97460.28
2023-02-26T04:26:17.687Z,97454.78
2023-02-26T04:28:49.252Z,97456.25
2023-02-26T04:31:19.690Z,97453.72
2023-02-26T04:33:49.979Z,97454.13
2023-02-26T04:36:23.073Z,97458.75
2023-02-26T04:38:53.310Z,97470.88
2023-02-26T04:41:23.594Z,97463.84
2023-02-26T04:43:53.935Z,97465.09
2023-02-26T04:46:29.082Z,97475.56
2023-02-26T04:48:59.401Z,97475.13
2023-02-26T04:51:32.057Z,97471.25
2023-02-26T04:54:02.248Z,97484.97
2023-02-26T04:56:32.346Z,97484.94
2023-02-26T04:59:04.434Z,97491.00
2023-02-26T05:01:35.027Z,97492.22
2023-02-26T05:04:07.277Z,97495.66
2023-02-26T05:06:40.336Z,97495.34
2023-02-26T05:09:10.504Z,97505.06
2023-02-26T05:11:40.841Z,97507.84
2023-02-26T05:14:10.866Z,97518.41
2023-02-26T05:16:41.412Z,97523.38
2023-02-26T05:19:11.454Z,97517.16
2023-02-26T05:21:44.520Z,97523.38
2023-02-26T05:24:14.664Z,97523.31
2023-02-26T05:26:44.792Z,97521.28
2023-02-26T05:29:14.823Z,97518.22
2023-02-26T05:31:44.992Z,97528.34
2023-02-26T05:34:15.486Z,97533.84
2023-02-26T05:36:48.283Z,97541.22
2023-02-26T05:39:18.274Z,97547.78
2023-02-26T05:41:48.794Z,97546.56
2023-02-26T05:44:18.814Z,97559.03
2023-02-26T05:46:48.863Z,97556.31
2023-02-26T05:49:18.896Z,97557.09
2023-02-26T05:51:51.594Z,97564.97
2023-02-26T05:54:21.688Z,97572.41
2023-02-26T05:56:51.873Z,97577.44
2023-02-26T05:59:22.125Z,97578.59
2023-02-26T06:01:52.233Z,97587.59
2023-02-26T06:04:22.325Z,97592.88
2023-02-26T06:06:55.083Z,97593.53
2023-02-26T06:09:25.119Z,97605.97
2023-02-26T06:11:55.225Z,97610.25
2023-02-26T06:14:25.233Z,97614.16
2023-02-26T06:16:55.283Z,97618.91
2023-02-26T06:19:25.390Z,97619.97
2023-02-26T06:21:58.024Z,97632.00
2023-02-26T06:24:28.253Z,97640.25
2023-02-26T06:26:58.316Z,97631.56
2023-02-26T06:29:28.363Z,97638.50
2023-02-26T06:31:58.497Z,97640.03
2023-02-26T06:34:28.873Z,97643.94
2023-02-26T06:37:01.557Z,97654.78
2023-02-26T06:39:31.625Z,97664.88
2023-02-26T06:42:02.043Z,97653.22
2023-02-26T06:44:32.114Z,97657.47
2023-02-26T06:47:02.250Z,97670.69
2023-02-26T06:49:32.272Z,97670.69
2023-02-26T06:52:04.966Z,97683.50
2023-02-26T06:54:34.969Z,97682.69
2023-02-26T06:57:05.128Z,97688.56
2023-02-26T06:59:35.119Z,97695.22
2023-02-26T07:02:05.136Z,97698.31
2023-02-26T07:04:35.277Z,97699.88
2023-02-26T07:07:07.893Z,97706.91
2023-02-26T07:09:37.995Z,97704.94
2023-02-26T07:12:09.443Z,97716.25
2023-02-26T07:14:39.451Z,97722.50
2023-02-26T07:17:09.573Z,97730.28
2023-02-26T07:19:39.730Z,97737.97
2023-02-26T07:22:12.422Z,97736.31
2023-02-26T07:24:42.524Z,97744.50
2023-02-26T07:27:12.696Z,97738.66
2023-02-26T07:29:42.736Z,97740.25
2023-02-26T07:32:13.054Z,97750.44
2023-02-26T07:34:43.133Z,97758.22
2023-02-26T07:37:15.921Z,97760.50
2023-02-26T07:39:46.065Z,97769.03
2023-02-26T07:42:16.080Z,97776.09
2023-02-26T07:44:46.249Z,97776.00
2023-02-26T07:47:18.056Z,97778.72
2023-02-26T07:49:48.104Z,97782.91
2023-02-26T07:52:20.727Z,97783.94
2023-02-26T07:54:50.800Z,97788.59
2023-02-26T07:57:20.878Z,97793.19
2023-02-26T07:59:50.930Z,97792.66
2023-02-26T08:02:20.930Z,97795.31
2023-02-26T08:04:50.973Z,97799.09
2023-02-26T08:07:23.604Z,97802.53
2023-02-26T08:09:53.751Z,97802.53
2023-02-26T08:12:23.797Z,97808.00
2023-02-26T08:14:53.821Z,97808.75
2023-02-26T08:17:23.827Z,97814.03
2023-02-26T08:19:53.862Z,97820.94
2023-02-26T08:22:27.098Z,97816.97
2023-02-26T08:24:57.202Z,97820.88
2023-02-26T08:27:27.349Z,97832.16
2023-02-26T08:29:57.401Z,97833.25
2023-02-26T08:32:28.367Z,97832.03
2023-02-26T08:34:58.592Z,97836.28
2023-02-26T08:37:31.288Z,97838.53
2023-02-26T08:40:01.366Z,97837.56
2023-02-26T08:42:31.416Z,97840.19
2023-02-26T08:45:01.469Z,97845.59
2023-02-26T08:47:32.079Z,97847.09
2023-02-26T08:50:03.356Z,97855.03
2023-02-26T08:52:36.132Z,97857.84
2023-02-26T08:55:06.685Z,97863.75
2023-02-26T08:57:36.756Z,97864.28
2023-02-26T09:00:10.555Z,97863.44
2023-02-26T09:02:40.963Z,97864.28
2023-02-26T09:05:12.465Z,97876.19
2023-02-26T09:07:45.754Z,97864.91
2023-02-26T09:10:17.158Z,97877.03
2023-02-26T09:12:47.747Z,97888.09
2023-02-26T09:15:18.183Z,97890.53
2023-02-26T09:17:48.950Z,97894.56
2023-02-26T09:20:19.061Z,97896.66
2023-02-26T09:22:51.728Z,97906.50
2023-02-26T09:25:21.922Z,97902.75
2023-02-26T09:27:51.973Z,97918.00
2023-02-26T09:30:22.424Z,97915.97
2023-02-26T09:32:52.594Z,97923.00
2023-02-26T09:35:22.696Z,97923.84
2023-02-26T09:37:55.293Z,97928.97
2023-02-26T09:40:31.496Z,97931.41
2023-02-26T09:43:11.379Z,97935.75
2023-02-26T09:45:44.608Z,97939.59
2023-02-26T09:48:18.540Z,97943.44
2023-02-26T09:50:50.793Z,97951.25
2023-02-26T09:53:26.311Z,97944.22
2023-02-26T09:55:59.774Z,97945.69
2023-02-26T09:58:32.467Z,97947.25
2023-02-26T10:01:08.754Z,97959.34
2023-02-26T10:03:46.600Z,97960.81
2023-02-26T10:06:23.296Z,97962.25
2023-02-26T10:09:18.353Z,97971.53
2023-02-26T10:11:54.106Z,97974.00
2023-02-26T10:14:29.176Z,97975.44
2023-02-26T10:17:02.785Z,97970.59
2023-02-26T10:19:36.736Z,97986.72
2023-02-26T10:22:18.762Z,97987.41
2023-02-26T10:24:53.786Z,97985.16
2023-02-26T10:27:27.467Z,97993.81
2023-02-26T10:30:02.851Z,97988.97
2023-02-26T10:32:38.036Z,97984.69
2023-02-26T10:35:12.118Z,97993.06
2023-02-26T10:37:49.721Z,97992.91
2023-02-26T10:40:27.591Z,97998.63
2023-02-26T10:43:01.492Z,98006.16
2023-02-26T10:45:40.271Z,98011.22
2023-02-26T10:48:33.793Z,98014.28
2023-02-26T10:51:04.842Z,98018.56
2023-02-26T10:53:35.684Z,98017.88
2023-02-26T10:56:12.067Z,98022.31
2023-02-26T10:58:42.130Z,98026.59
2023-02-26T11:01:18.096Z,98024.41
2023-02-26T11:03:51.777Z,98025.16
2023-02-26T11:06:24.402Z,98030.94
2023-02-26T11:08:56.375Z,98031.09
2023-02-26T11:11:45.510Z,98033.06
2023-02-26T11:14:15.564Z,98032.06
2023-02-26T11:16:49.886Z,98033.03
2023-02-26T11:19:21.146Z,98031.13
2023-02-26T11:21:53.346Z,98029.50
2023-02-26T11:24:32.276Z,98032.25
2023-02-26T11:27:06.909Z,98031.34
2023-02-26T11:29:41.324Z,98038.38
2023-02-26T11:32:20.166Z,98036.81
2023-02-26T11:34:51.569Z,98036.13
2023-02-26T11:37:23.558Z,98038.94
2023-02-26T11:39:58.101Z,98035.44
2023-02-26T11:42:31.046Z,98041.03
2023-02-26T11:45:01.230Z,98044.19
2023-02-26T11:47:33.089Z,98034.97
2023-02-26T11:50:05.998Z,98036.91
2023-02-26T11:52:37.869Z,98037.06
2023-02-26T11:55:19.317Z,98041.38
2023-02-26T11:57:54.921Z,98041.22
2023-02-26T12:00:33.017Z,98037.38
2023-02-26T12:03:05.022Z,98039.59
2023-02-26T12:05:35.354Z,98035.84
2023-02-26T12:08:08.179Z,98026.00
2023-02-26T12:10:42.461Z,98043.81
2023-02-26T12:13:20.959Z,98043.13
2023-02-26T12:15:57.583Z,98045.47
2023-02-26T12:18:40.780Z,98045.75
2023-02-26T12:21:21.122Z,98044.28
2023-02-26T12:24:17.878Z,98054.63
2023-02-26T12:26:53.581Z,98051.31
2023-02-26T12:29:39.442Z,98058.25
2023-02-26T12:32:22.772Z,98054.53
2023-02-26T12:35:24.584Z,98050.59
2023-02-26T12:38:03.194Z,98049.16
2023-02-26T12:40:47.466Z,98054.88
2023-02-26T12:43:24.380Z,98054.53
2023-02-26T12:46:02.366Z,98057.97
2023-02-26T12:49:05.205Z,98050.69
2023-02-26T12:51:47.295Z,98056.56
2023-02-26T12:54:27.465Z,98060.41
2023-02-26T12:57:17.357Z,98061.47
2023-02-26T13:00:23.568Z,98069.03
2023-02-26T13:03:29.907Z,98067.19
2023-02-26T13:06:23.506Z,98061.63
2023-02-26T13:09:02.136Z,98070.91
2023-02-26T13:11:52.962Z,98076.63
2023-02-26T13:14:34.145Z,98076.88
2023-02-26T13:17:09.771Z,98078.97
2023-02-26T13:19:45.335Z,98085.13
2023-02-26T13:22:23.492Z,98087.97
2023-02-26T13:24:58.030Z,98082.28
2023-02-26T13:27:31.493Z,98080.88
2023-02-26T13:30:09.615Z,98086.47
2023-02-26T13:32:41.252Z,98094.06
2023-02-26T13:35:23.760Z,98094.59
2023-02-26T13:37:58.574Z,98098.03
2023-02-26T13:40:50.939Z,98098.50
2023-02-26T13:43:47.836Z,98092.56
2023-02-26T13:46:39.684Z,98092.13
2023-02-26T13:49:17.825Z,98090.81
2023-02-26T13:51:49.970Z,98092.19
2023-02-26T13:54:38.906Z,98088.06
2023-02-26T13:57:12.730Z,98094.53
2023-02-26T13:59:52.011Z,98097.00
2023-02-26T14:02:55.906Z,98102.56
2023-02-26T14:05:56.891Z,98098.06
2023-02-26T14:08:49.002Z,98098.34
2023-02-26T14:11:42.221Z,98100.72
2023-02-26T14:14:20.855Z,98108.59
2023-02-26T14:16:54.387Z,98114.75
2023-02-26T14:19:36.378Z,98108.84
2023-02-26T14:22:20.559Z,98104.97
2023-02-26T14:24:56.973Z,98121.59
2023-02-26T14:27:37.694Z,98116.34
2023-02-26T14:30:20.271Z,98124.31
2023-02-26T14:32:55.094Z,98117.09
2023-02-26T14:35:33.113Z,98120.00
2023-02-26T14:38:06.755Z,98122.88
2023-02-26T14:40:41.572Z,98127.75
2023-02-26T14:43:21.876Z,98131.25
2023-02-26T14:45:53.461Z,98130.75
2023-02-26T14:48:29.506Z,98133.44
2023-02-26T14:51:11.368Z,98129.56
2023-02-26T14:54:00.083Z,98132.91
2023-02-26T14:56:37.208Z,98135.69
2023-02-26T14:59:30.461Z,98132.25
2023-02-26T15:02:11.087Z,98129.94
2023-02-26T15:05:22.680Z,98142.88
2023-02-26T15:08:13.158Z,98137.19
2023-02-26T15:10:58.095Z,98139.72
2023-02-26T15:13:43.143Z,98133.66
2023-02-26T15:16:27.918Z,98144.06
2023-02-26T15:19:08.607Z,98149.75
2023-02-26T15:21:45.898Z,98147.38
2023-02-26T15:24:17.251Z,98149.34
2023-02-26T15:26:50.455Z,98150.59
2023-02-26T15:29:21.415Z,98145.66
2023-02-26T15:31:58.597Z,98154.34
2023-02-26T15:34:28.798Z,98156.72
2023-02-26T15:37:01.400Z,98162.75
2023-02-26T15:39:31.604Z,98154.09
2023-02-26T15:42:02.045Z,98164.44
2023-02-26T15:44:35.096Z,98157.00
2023-02-26T15:47:10.005Z,98161.63
2023-02-26T15:49:43.064Z,98167.56
2023-02-26T15:52:16.888Z,98167.50
2023-02-26T15:54:49.799Z,98170.38
2023-02-26T15:57:22.183Z,98161.50
2023-02-26T15:59:54.004Z,98169.94
2023-02-26T16:02:32.828Z,98170.81
2023-02-26T16:05:05.176Z,98182.28
2023-02-26T16:07:35.346Z,98174.59
2023-02-26T16:10:09.306Z,98177.31
2023-02-26T16:12:43.779Z,98180.13
2023-02-26T16:15:17.022Z,98184.13
2023-02-26T16:17:52.450Z,98180.69
2023-02-26T16:20:24.510Z,98186.63
2023-02-26T16:22:58.947Z,98183.97
2023-02-26T16:25:32.173Z,98188.44
2023-02-26T16:28:05.181Z,98192.47
2023-02-26T16:30:38.094Z,98198.38
2023-02-26T16:33:14.281Z,98201.53
2023-02-26T16:35:47.156Z,98197.31
2023-02-26T16:38:23.909Z,98203.69
2023-02-26T16:41:02.017Z,98212.44
2023-02-26T16:43:51.900Z,98215.69
2023-02-26T16:46:25.552Z,98216.47
2023-02-26T16:49:01.230Z,98224.28
2023-02-26T16:51:34.943Z,98219.66
2023-02-26T16:54:09.083Z,98229.09
2023-02-26T16:56:42.824Z,98236.63
2023-02-26T16:59:17.649Z,98246.41
2023-02-26T17:01:54.140Z,98237.84
2023-02-26T17:04:31.910Z,98252.28
2023-02-26T17:07:02.151Z,98250.41
2023-02-26T17:09:40.385Z,98254.75
2023-02-26T17:12:16.823Z,98262.22
2023-02-26T17:14:49.586Z,98268.84
2023-02-26T17:17:19.738Z,98270.00
2023-02-26T17:19:53.218Z,98270.78
2023-02-26T17:22:28.855Z,98278.22
2023-02-26T17:24:59.079Z,98277.47
2023-02-26T17:27:33.130Z,98278.63
2023-02-26T17:30:04.887Z,98288.41
2023-02-26T17:32:36.301Z,98290.34
2023-02-26T17:35:09.430Z,98297.00
2023-02-26T17:37:39.817Z,98301.31
2023-02-26T17:40:21.286Z,98302.09
2023-02-26T17:42:52.099Z,98300.13
2023-02-26T17:45:23.016Z,98309.09
2023-02-26T17:47:53.257Z,98309.94
2023-02-26T17:50:35.005Z,98314.63
2023-02-26T17:53:05.292Z,98320.09
2023-02-26T17:55:35.851Z,98312.72
2023-02-26T17:58:06.002Z,98320.94
2023-02-26T18:00:40.787Z,98328.75
2023-02-26T18:03:11.641Z,98327.97
2023-02-26T18:05:44.641Z,98336.94
2023-02-26T18:08:21.096Z,98333.41
2023-02-26T18:10:51.269Z,98337.69
2023-02-26T18:13:21.475Z,98343.16
2023-02-26T18:15:52.579Z,98345.88
2023-02-26T18:18:24.495Z,98350.56
2023-02-26T18:20:57.789Z,98353.66
2023-02-26T18:23:27.964Z,98351.34
2023-02-26T18:25:58.177Z,98350.56
2023-02-26T18:28:30.030Z,98346.63
2023-02-26T18:31:02.240Z,98345.06
2023-02-26T18:33:32.665Z,98347.00
2023-02-26T18:36:06.214Z,98347.41
2023-02-26T18:38:36.327Z,98353.25
2023-02-26T18:41:06.533Z,98357.50
2023-02-26T18:43:36.541Z,98355.16
2023-02-26T18:46:07.395Z,98366.03
2023-02-26T18:48:37.438Z,98359.78
2023-02-26T18:51:11.394Z,98369.97
2023-02-26T18:53:41.682Z,98369.16
2023-02-26T18:56:11.744Z,98378.50
2023-02-26T18:58:41.762Z,98378.09
2023-02-26T19:01:11.930Z,98386.28
2023-02-26T19:03:42.031Z,98385.50
2023-02-26T19:06:14.693Z,98386.28
2023-02-26T19:08:44.766Z,98402.66
2023-02-26T19:11:15.101Z,98394.06
2023-02-26T19:13:45.400Z,98394.84
2023-02-26T19:16:15.707Z,98403.44
2023-02-26T19:18:45.798Z,98406.16
2023-02-26T19:21:18.829Z,98408.88
2023-02-26T19:23:48.896Z,98411.59
2023-02-26T19:26:19.323Z,98416.28
2023-02-26T19:28:49.311Z,98428.34
2023-02-26T19:31:19.457Z,98424.09
2023-02-26T19:33:49.553Z,98421.72
2023-02-26T19:36:23.643Z,98423.69
2023-02-26T19:38:53.857Z,98423.69
2023-02-26T19:41:24.326Z,98427.22
2023-02-26T19:43:54.552Z,98428.00
2023-02-26T19:46:24.701Z,98430.72
2023-02-26T19:48:54.833Z,98439.69
2023-02-26T19:51:27.871Z,98441.25
2023-02-26T19:53:58.087Z,98441.66
2023-02-26T19:56:28.227Z,98449.44
2023-02-26T19:58:58.335Z,98452.16
2023-02-26T20:01:28.735Z,98451.75
2023-02-26T20:03:58.974Z,98449.84
2023-02-26T20:06:31.686Z,98453.34
2023-02-26T20:09:01.725Z,98458.78
2023-02-26T20:11:31.810Z,98467.38
2023-02-26T20:14:02.575Z,98468.94
2023-02-26T20:16:32.589Z,98475.94
2023-02-26T20:19:03.324Z,98474.78
2023-02-26T20:21:36.012Z,98481.00
2023-02-26T20:24:06.120Z,98484.16
2023-02-26T20:26:36.177Z,98478.28
2023-02-26T20:29:07.002Z,98488.81
2023-02-26T20:31:37.502Z,98487.66
2023-02-26T20:34:08.062Z,98485.31
2023-02-26T20:36:41.816Z,98490.00
2023-02-26T20:39:11.901Z,98498.56
2023-02-26T20:41:42.221Z,98507.13
2023-02-26T20:44:12.272Z,98511.81
2023-02-26T20:46:42.406Z,98504.03
2023-02-26T20:49:12.496Z,98510.28
2023-02-26T20:51:46.104Z,98510.28
2023-02-26T20:54:17.871Z,98512.22
2023-02-26T20:56:48.880Z,98510.25
2023-02-26T20:59:19.336Z,98512.22
2023-02-26T21:01:51.490Z,98516.13
2023-02-26T21:04:22.530Z,98518.06
2023-02-26T21:06:55.249Z,98523.50
2023-02-26T21:09:25.366Z,98527.81
2023-02-26T21:11:55.350Z,98527.03
2023-02-26T21:14:27.021Z,98520.41
2023-02-26T21:16:58.957Z,98539.09
2023-02-26T21:19:29.112Z,98534.44
2023-02-26T21:22:01.774Z,98536.00
2023-02-26T21:24:32.346Z,98535.56
2023-02-26T21:27:02.362Z,98539.88
2023-02-26T21:29:32.418Z,98540.63
2023-02-26T21:32:03.723Z,98547.63
2023-02-26T21:34:35.620Z,98550.72
2023-02-26T21:37:10.418Z,98548.38
2023-02-26T21:39:41.286Z,98551.47
2023-02-26T21:42:14.431Z,98555.72
2023-02-26T21:44:44.728Z,98549.50
2023-02-26T21:47:14.938Z,98551.03
2023-02-26T21:49:44.969Z,98552.19
2023-02-26T21:52:17.651Z,98551.41
2023-02-26T21:54:47.905Z,98552.16
2023-02-26T21:57:17.984Z,98548.25
2023-02-26T21:59:48.249Z,98550.97
2023-02-26T22:02:18.374Z,98544.69
2023-02-26T22:04:48.707Z,98545.84
2023-02-26T22:07:21.439Z,98554.00
2023-02-26T22:09:51.929Z,98555.22
2023-02-26T22:12:22.328Z,98552.03
2023-02-26T22:14:52.374Z,98550.88
2023-02-26T22:17:23.642Z,98559.81
2023-02-26T22:19:54.516Z,98553.56
2023-02-26T22:22:27.225Z,98555.50
2023-02-26T22:24:57.285Z,98558.59
2023-02-26T22:27:27.379Z,98558.59
2023-02-26T22:29:57.455Z,98558.97
2023-02-26T22:32:27.631Z,98560.53
2023-02-26T22:34:57.944Z,98558.59
2023-02-26T22:37:30.658Z,98562.88
2023-02-26T22:40:00.699Z,98558.94
2023-02-26T22:42:30.733Z,98560.47
2023-02-26T22:45:00.847Z,98562.75
2023-02-26T22:47:31.278Z,98561.19
2023-02-26T22:50:01.760Z,98567.06
2023-02-26T22:52:34.558Z,98562.34
2023-02-26T22:55:04.616Z,98574.00
2023-02-26T22:57:35.307Z,98567.72
2023-02-26T23:00:08.504Z,98578.53
2023-02-26T23:02:38.972Z,98572.25
2023-02-26T23:05:09.818Z,98573.75
2023-02-26T23:07:43.117Z,98570.22
2023-02-26T23:10:15.806Z,98570.94
2023-02-26T23:12:47.127Z,98572.47
2023-02-26T23:15:18.067Z,98571.66
2023-02-26T23:17:48.127Z,98570.84
2023-02-26T23:20:18.210Z,98568.88
2023-02-26T23:22:50.886Z,98578.56
2023-02-26T23:25:20.962Z,98577.78
2023-02-26T23:27:50.965Z,98585.91
2023-02-26T23:30:21.949Z,98580.03
2023-02-26T23:32:52.157Z,98583.09
2023-02-26T23:35:22.269Z,98582.28
2023-02-26T23:37:54.996Z,98591.16
2023-02-26T23:40:25.182Z,98587.63
2023-02-26T23:42:56.303Z,98586.78
2023-02-26T23:45:26.706Z,98587.53
2023-02-26T23:47:56.767Z,98590.59
2023-02-26T23:50:26.936Z,98585.84
2023-02-26T23:52:59.856Z,98590.50
2023-02-26T23:55:30.079Z,98592.75
2023-02-26T23:58:00.234Z,98591.81
